createdAt,value
2022-08-27T00:01:27.660Z,9.40
2022-08-27T00:03:55.421Z,8.77
2022-08-27T00:06:23.909Z,8.82
2022-08-27T00:08:51.498Z,9.73
2022-08-27T00:11:20.449Z,9.07
2022-08-27T00:13:47.404Z,8.80
2022-08-27T00:16:16.749Z,10.18
2022-08-27T00:18:48.205Z,9.32
2022-08-27T00:21:15.496Z,8.95
2022-08-27T00:23:42.028Z,10.10
2022-08-27T00:26:08.969Z,9.43
2022-08-27T00:28:36.019Z,9.48
2022-08-27T00:31:02.730Z,10.45
2022-08-27T00:33:30.523Z,9.82
2022-08-27T00:35:57.466Z,9.57
2022-08-27T00:38:24.411Z,10.20
2022-08-27T00:40:52.420Z,10.27
2022-08-27T00:43:29.476Z,10.48
2022-08-27T00:46:03.003Z,11.10
2022-08-27T00:48:33.193Z,9.43
2022-08-27T00:50:59.979Z,10.77
2022-08-27T00:53:33.094Z,10.48
2022-08-27T00:56:10.927Z,10.02
2022-08-27T00:58:44.185Z,10.18
2022-08-27T01:01:14.806Z,10.20
2022-08-27T01:03:46.421Z,11.35
2022-08-27T01:06:16.136Z,11.32
2022-08-27T01:08:50.826Z,10.15
2022-08-27T01:11:18.701Z,11.77
2022-08-27T01:14:00.102Z,11.75
2022-08-27T01:16:35.723Z,10.18
2022-08-27T01:19:06.119Z,11.82
2022-08-27T01:21:44.079Z,10.70
2022-08-27T01:24:36.953Z,10.32
2022-08-27T01:27:13.450Z,10.82
2022-08-27T01:29:41.253Z,9.95
2022-08-27T01:32:14.551Z,11.00
2022-08-27T01:34:41.026Z,11.05
2022-08-27T01:37:08.518Z,10.18
2022-08-27T01:39:36.783Z,12.25
2022-08-27T01:42:07.448Z,10.50
2022-08-27T01:44:50.710Z,11.50
2022-08-27T01:47:18.972Z,10.95
2022-08-27T01:49:45.561Z,10.32
2022-08-27T01:52:13.386Z,14.00
2022-08-27T01:54:40.227Z,11.07
2022-08-27T01:57:06.793Z,11.93
2022-08-27T01:59:39.612Z,11.93
2022-08-27T02:02:08.055Z,11.52
2022-08-27T02:04:34.673Z,12.48
2022-08-27T02:07:01.114Z,11.80
2022-08-27T02:09:27.628Z,11.63
2022-08-27T02:11:54.175Z,12.27
2022-08-27T02:14:20.585Z,10.32
2022-08-27T02:16:52.668Z,12.70
2022-08-27T02:19:20.350Z,13.40
2022-08-27T02:21:47.180Z,12.75
2022-08-27T02:24:14.008Z,11.70
2022-08-27T02:26:40.452Z,11.15
2022-08-27T02:29:07.808Z,11.77
2022-08-27T02:31:34.464Z,11.82
2022-08-27T02:34:01.482Z,11.60
2022-08-27T02:36:28.239Z,12.27
2022-08-27T02:38:55.396Z,12.40
2022-08-27T02:41:23.117Z,12.35
2022-08-27T02:43:49.504Z,11.77
2022-08-27T02:46:16.876Z,10.35
2022-08-27T02:48:44.826Z,11.85
2022-08-27T02:51:11.466Z,11.80
2022-08-27T02:53:38.663Z,11.88
2022-08-27T02:56:06.989Z,11.57
2022-08-27T02:58:33.706Z,12.70
2022-08-27T03:01:01.800Z,11.18
2022-08-27T03:03:29.698Z,12.48
2022-08-27T03:05:57.941Z,11.43
2022-08-27T03:08:27.470Z,11.13
2022-08-27T03:10:57.278Z,12.23
2022-08-27T03:13:25.835Z,10.80
2022-08-27T03:15:53.274Z,10.68
2022-08-27T03:18:21.452Z,10.88
2022-08-27T03:20:53.638Z,11.32
2022-08-27T03:23:26.225Z,11.63
2022-08-27T03:25:56.187Z,10.57
2022-08-27T03:28:26.339Z,10.88
2022-08-27T03:31:01.345Z,10.75
2022-08-27T03:33:38.416Z,10.25
2022-08-27T03:36:06.245Z,10.77
2022-08-27T03:38:32.931Z,10.93
2022-08-27T03:40:59.476Z,11.63
2022-08-27T03:43:26.053Z,11.68
2022-08-27T03:46:00.885Z,10.93
2022-08-27T03:48:29.509Z,11.15
2022-08-27T03:50:56.005Z,10.85
2022-08-27T03:53:22.476Z,11.70
2022-08-27T03:55:49.008Z,9.93
2022-08-27T03:58:16.817Z,12.35
2022-08-27T04:00:43.255Z,10.68
2022-08-27T04:03:13.476Z,10.35
2022-08-27T04:05:40.748Z,10.38
2022-08-27T04:08:09.655Z,10.60
2022-08-27T04:10:40.458Z,9.95
2022-08-27T04:13:06.908Z,9.77
2022-08-27T04:15:33.576Z,10.73
2022-08-27T04:18:00.200Z,10.85
2022-08-27T04:20:35.779Z,10.20
2022-08-27T04:23:03.623Z,9.82
2022-08-27T04:25:30.055Z,10.43
2022-08-27T04:27:56.767Z,10.93
2022-08-27T04:30:23.305Z,9.88
2022-08-27T04:32:50.522Z,10.63
2022-08-27T04:35:17.531Z,9.57
2022-08-27T04:37:44.649Z,9.55
2022-08-27T04:40:11.314Z,10.90
2022-08-27T04:42:37.931Z,10.23
2022-08-27T04:45:05.197Z,10.48
2022-08-27T04:47:31.644Z,11.60
2022-08-27T04:49:58.270Z,10.70
2022-08-27T04:52:25.418Z,10.90
2022-08-27T04:54:52.073Z,9.82
2022-08-27T04:57:18.737Z,10.63
2022-08-27T04:59:45.540Z,10.82
2022-08-27T05:02:11.946Z,12.35
2022-08-27T05:04:40.166Z,10.95
2022-08-27T05:07:08.594Z,11.13
2022-08-27T05:09:35.239Z,10.63
2022-08-27T05:12:01.799Z,9.73
2022-08-27T05:14:32.662Z,10.13
2022-08-27T05:17:00.044Z,10.82
2022-08-27T05:19:27.967Z,9.60
2022-08-27T05:21:54.802Z,9.70
2022-08-27T05:24:22.300Z,10.88
2022-08-27T05:26:49.934Z,10.82
2022-08-27T05:29:16.951Z,10.52
2022-08-27T05:31:48.418Z,9.82
2022-08-27T05:34:21.151Z,9.80
2022-08-27T05:36:53.047Z,10.25
2022-08-27T05:39:19.440Z,10.40
2022-08-27T05:41:47.113Z,10.38
2022-08-27T05:47:03.110Z,10.00
2022-08-27T05:49:29.545Z,10.52
2022-08-27T05:51:56.032Z,10.10
2022-08-27T05:54:23.520Z,10.85
2022-08-27T05:56:50.455Z,10.88
2022-08-27T05:59:36.037Z,9.85
2022-08-27T06:02:03.915Z,9.38
2022-08-27T06:04:30.585Z,10.38
2022-08-27T06:06:57.553Z,9.82
2022-08-27T06:09:26.863Z,10.20
2022-08-27T06:11:55.442Z,10.23
2022-08-27T06:14:22.839Z,9.93
2022-08-27T06:16:49.313Z,10.07
2022-08-27T06:19:16.704Z,9.63
2022-08-27T06:21:43.665Z,10.68
2022-08-27T06:24:14.498Z,9.75
2022-08-27T06:26:42.503Z,10.25
2022-08-27T06:29:09.898Z,11.20
2022-08-27T06:31:37.280Z,10.43
2022-08-27T06:34:07.602Z,10.90
2022-08-27T06:36:38.740Z,11.07
2022-08-27T06:39:06.520Z,9.88
2022-08-27T06:41:34.108Z,9.48
2022-08-27T06:44:03.609Z,10.27
2022-08-27T06:46:30.599Z,10.43
2022-08-27T06:49:00.211Z,10.73
2022-08-27T06:51:30.358Z,10.15
2022-08-27T06:53:59.035Z,9.60
2022-08-27T06:56:26.216Z,9.05
2022-08-27T06:58:55.367Z,9.77
2022-08-27T07:01:28.202Z,9.60
2022-08-27T07:03:59.021Z,9.73
2022-08-27T07:06:27.498Z,9.77
2022-08-27T07:08:54.451Z,8.93
2022-08-27T07:11:21.805Z,9.07
2022-08-27T07:13:48.987Z,9.52
2022-08-27T07:16:23.971Z,7.88
2022-08-27T07:18:53.414Z,9.13
2022-08-27T07:21:21.018Z,8.63
2022-08-27T07:23:50.000Z,8.93
2022-08-27T07:26:17.554Z,8.50
2022-08-27T07:28:44.580Z,7.93
2022-08-27T07:31:14.017Z,8.75
2022-08-27T07:33:45.397Z,8.68
2022-08-27T07:36:18.822Z,8.20
2022-08-27T07:38:45.325Z,8.80
2022-08-27T07:41:25.604Z,8.20
2022-08-27T07:44:16.099Z,7.68
2022-08-27T07:46:48.674Z,7.97
2022-08-27T07:49:17.164Z,7.55
2022-08-27T07:51:44.284Z,7.57
2022-08-27T07:54:10.993Z,7.28
2022-08-27T07:56:37.503Z,7.22
2022-08-27T07:59:03.930Z,6.68
2022-08-27T08:01:31.921Z,7.50
2022-08-27T08:03:58.444Z,7.10
2022-08-27T08:06:24.874Z,6.72
2022-08-27T08:08:51.413Z,6.65
2022-08-27T08:11:18.565Z,7.68
2022-08-27T08:13:46.221Z,7.07
2022-08-27T08:16:14.004Z,6.63
2022-08-27T08:18:41.082Z,6.57
2022-08-27T08:21:13.498Z,6.07
2022-08-27T08:23:41.372Z,6.72
2022-08-27T08:26:08.431Z,7.53
2022-08-27T08:28:35.267Z,6.80
2022-08-27T08:31:01.831Z,6.43
2022-08-27T08:33:29.656Z,6.90
2022-08-27T08:36:03.056Z,6.88
2022-08-27T08:38:29.612Z,6.40
2022-08-27T08:40:56.130Z,6.28
2022-08-27T08:43:36.762Z,6.50
2022-08-27T08:46:12.295Z,5.82
2022-08-27T08:48:43.505Z,6.40
2022-08-27T08:51:18.975Z,6.57
2022-08-27T08:53:57.859Z,5.78
2022-08-27T08:56:32.028Z,6.38
2022-08-27T08:59:24.627Z,6.00
2022-08-27T09:01:51.759Z,5.85
2022-08-27T09:04:18.303Z,5.97
2022-08-27T09:07:09.734Z,6.70
2022-08-27T09:09:46.706Z,5.53
2022-08-27T09:12:20.065Z,6.35
2022-08-27T09:14:52.068Z,6.22
2022-08-27T09:17:20.547Z,6.53
2022-08-27T09:19:46.987Z,6.35
2022-08-27T09:22:42.672Z,6.82
2022-08-27T09:25:23.322Z,5.95
2022-08-27T09:27:55.147Z,6.45
2022-08-27T09:30:30.329Z,5.88
2022-08-27T09:33:04.488Z,6.32
2022-08-27T09:35:46.007Z,6.38
2022-08-27T09:38:26.682Z,6.30
2022-08-27T09:40:53.355Z,6.00
2022-08-27T09:43:23.676Z,6.47
2022-08-27T09:45:54.627Z,6.57
2022-08-27T09:48:25.647Z,6.28
2022-08-27T09:50:55.015Z,6.15
2022-08-27T09:53:27.323Z,6.18
2022-08-27T09:55:58.807Z,6.05
2022-08-27T09:58:52.713Z,6.10
2022-08-27T10:01:24.802Z,6.18
2022-08-27T10:04:03.405Z,6.15
2022-08-27T10:06:31.712Z,5.35
2022-08-27T10:09:17.554Z,5.35
2022-08-27T10:11:50.976Z,5.20
2022-08-27T10:14:40.101Z,6.07
2022-08-27T10:17:22.944Z,5.70
2022-08-27T10:20:12.620Z,5.65
2022-08-27T10:22:55.818Z,5.82
2022-08-27T10:25:28.026Z,5.68
2022-08-27T10:28:08.746Z,5.50
2022-08-27T10:30:52.512Z,6.25
2022-08-27T10:33:33.811Z,5.80
2022-08-27T10:36:10.664Z,5.65
2022-08-27T10:38:43.844Z,6.70
2022-08-27T10:41:28.024Z,6.38
2022-08-27T10:44:13.361Z,5.57
2022-08-27T10:47:05.026Z,5.85
2022-08-27T10:49:44.867Z,5.55
2022-08-27T10:52:18.477Z,5.82
2022-08-27T10:55:28.193Z,5.30
2022-08-27T10:58:35.580Z,6.57
2022-08-27T11:01:20.171Z,5.82
2022-08-27T11:03:55.793Z,5.28
2022-08-27T11:06:31.549Z,4.53
2022-08-27T11:09:07.609Z,5.03
2022-08-27T11:14:38.450Z,5.63
2022-08-27T11:17:14.049Z,6.50
2022-08-27T11:20:04.741Z,5.97
2022-08-27T11:22:41.412Z,6.05
2022-08-27T11:25:30.706Z,6.45
2022-08-27T11:27:59.584Z,6.25
2022-08-27T11:30:41.969Z,6.13
2022-08-27T11:33:31.671Z,6.55
2022-08-27T11:36:13.207Z,5.55
2022-08-27T11:38:58.741Z,6.32
2022-08-27T11:41:54.656Z,5.35
2022-08-27T11:44:24.991Z,4.25
2022-08-27T11:46:56.079Z,3.95
2022-08-27T11:49:57.080Z,3.25
2022-08-27T11:52:37.319Z,3.25
2022-08-27T11:55:13.124Z,3.05
2022-08-27T11:57:40.232Z,3.20
2022-08-27T12:00:33.789Z,2.60
2022-08-27T12:03:18.579Z,2.67
2022-08-27T12:05:54.223Z,2.80
2022-08-27T12:08:23.983Z,3.05
2022-08-27T12:11:18.132Z,3.38
2022-08-27T12:14:04.289Z,2.95
2022-08-27T12:16:41.452Z,3.35
2022-08-27T12:19:31.713Z,2.90
2022-08-27T12:23:09.497Z,2.55
2022-08-27T12:25:35.926Z,3.00
2022-08-27T12:28:05.667Z,2.50
2022-08-27T12:30:36.169Z,3.22
2022-08-27T12:33:34.348Z,3.33
2022-08-27T12:36:11.078Z,3.55
2022-08-27T12:38:48.033Z,3.10
2022-08-27T12:41:44.557Z,2.47
2022-08-27T12:44:31.456Z,2.78
2022-08-27T12:47:07.769Z,2.42
2022-08-27T12:49:41.518Z,3.15
2022-08-27T12:52:44.141Z,2.85
2022-08-27T12:55:31.376Z,2.22
2022-08-27T12:58:28.168Z,2.70
2022-08-27T13:01:17.431Z,2.92
2022-08-27T13:03:48.671Z,2.67
2022-08-27T13:06:19.126Z,3.03
2022-08-27T13:08:47.083Z,2.05
2022-08-27T13:11:21.977Z,2.20
2022-08-27T13:13:49.175Z,2.25
2022-08-27T13:16:21.858Z,2.13
2022-08-27T13:18:50.552Z,1.85
2022-08-27T13:21:28.053Z,1.95
2022-08-27T13:24:02.187Z,1.73
2022-08-27T13:26:33.994Z,2.00
2022-08-27T13:29:03.817Z,2.50
2022-08-27T13:31:32.547Z,2.13
2022-08-27T13:34:00.222Z,1.92
2022-08-27T13:36:32.615Z,1.80
2022-08-27T13:39:02.007Z,2.20
2022-08-27T13:41:37.300Z,1.60
2022-08-27T13:44:10.484Z,2.22
2022-08-27T13:46:46.855Z,2.30
2022-08-27T13:49:18.353Z,2.40
2022-08-27T13:51:45.569Z,2.05
2022-08-27T13:54:13.052Z,2.40
2022-08-27T13:57:08.134Z,2.17
2022-08-27T13:59:41.950Z,2.33
2022-08-27T14:02:09.804Z,1.83
2022-08-27T14:04:47.547Z,1.92
2022-08-27T14:07:17.500Z,1.95
2022-08-27T14:09:54.007Z,2.78
2022-08-27T14:12:41.521Z,2.47
2022-08-27T14:15:31.896Z,2.28
2022-08-27T14:17:58.568Z,2.28
2022-08-27T14:20:25.222Z,1.73
2022-08-27T14:22:51.829Z,2.13
2022-08-27T14:25:22.421Z,1.95
2022-08-27T14:27:53.986Z,2.53
2022-08-27T14:30:28.924Z,2.30
2022-08-27T14:32:58.342Z,1.95
2022-08-27T14:35:25.739Z,2.35
2022-08-27T14:37:52.504Z,1.80
2022-08-27T14:40:19.489Z,1.90
2022-08-27T14:42:49.787Z,2.40
2022-08-27T14:45:17.758Z,2.38
2022-08-27T14:47:48.622Z,2.20
2022-08-27T14:50:15.472Z,1.50
2022-08-27T14:52:45.143Z,1.80
2022-08-27T14:55:11.751Z,1.90
2022-08-27T14:57:38.722Z,2.22
2022-08-27T15:00:07.748Z,1.90
2022-08-27T15:02:34.853Z,1.88
2022-08-27T15:05:01.414Z,2.20
2022-08-27T15:07:37.943Z,1.80
2022-08-27T15:10:05.332Z,1.60
2022-08-27T15:12:32.918Z,1.95
2022-08-27T15:14:59.506Z,2.33
2022-08-27T15:17:34.535Z,1.80
2022-08-27T15:20:05.587Z,1.73
2022-08-27T15:22:34.048Z,1.70
2022-08-27T15:25:02.954Z,1.83
2022-08-27T15:27:38.301Z,1.45
2022-08-27T15:30:10.161Z,1.75
2022-08-27T15:32:40.701Z,2.40
2022-08-27T15:35:12.433Z,2.13
2022-08-27T15:37:39.514Z,2.50
2022-08-27T15:40:06.844Z,1.88
2022-08-27T15:42:33.304Z,1.90
2022-08-27T15:44:59.960Z,1.73
2022-08-27T15:47:26.408Z,1.83
2022-08-27T15:49:52.896Z,2.08
2022-08-27T15:52:21.775Z,2.38
2022-08-27T15:54:49.104Z,2.38
2022-08-27T15:57:17.017Z,2.03
2022-08-27T15:59:44.678Z,2.50
2022-08-27T16:02:16.331Z,2.10
2022-08-27T16:04:44.454Z,1.63
2022-08-27T16:07:17.798Z,1.77
2022-08-27T16:09:47.656Z,1.60
2022-08-27T16:12:27.060Z,2.00
2022-08-27T16:14:55.069Z,2.75
2022-08-27T16:17:21.928Z,2.00
2022-08-27T16:19:49.280Z,2.13
2022-08-27T16:22:16.205Z,2.22
2022-08-27T16:24:42.999Z,2.20
2022-08-27T16:27:09.387Z,2.20
2022-08-27T16:29:36.681Z,2.47
2022-08-27T16:32:03.633Z,2.15
2022-08-27T16:34:30.943Z,1.70
2022-08-27T16:36:57.611Z,2.08
2022-08-27T16:39:24.024Z,2.38
2022-08-27T16:41:50.460Z,2.88
2022-08-27T16:44:17.604Z,2.10
2022-08-27T16:46:44.125Z,2.22
2022-08-27T16:49:29.165Z,2.78
2022-08-27T16:51:56.064Z,2.63
2022-08-27T16:54:22.544Z,2.30
2022-08-27T16:56:50.114Z,2.58
2022-08-27T16:59:16.666Z,2.42
2022-08-27T17:01:45.150Z,2.53
2022-08-27T17:04:21.357Z,2.50
2022-08-27T17:06:54.705Z,3.15
2022-08-27T17:09:21.379Z,2.83
2022-08-27T17:11:54.468Z,2.80
2022-08-27T17:14:21.308Z,2.63
2022-08-27T17:16:47.744Z,3.00
2022-08-27T17:19:17.130Z,2.75
2022-08-27T17:21:45.429Z,2.88
2022-08-27T17:24:12.862Z,2.88
2022-08-27T17:26:39.908Z,3.05
2022-08-27T17:29:06.420Z,2.75
2022-08-27T17:31:37.109Z,3.17
2022-08-27T17:34:06.085Z,3.00
2022-08-27T17:36:33.392Z,3.60
2022-08-27T17:39:02.535Z,2.60
2022-08-27T17:41:34.191Z,3.20
2022-08-27T17:44:05.022Z,3.53
2022-08-27T17:46:31.914Z,3.70
2022-08-27T17:48:59.548Z,3.08
2022-08-27T17:51:27.430Z,3.55
2022-08-27T17:54:00.552Z,3.00
2022-08-27T17:56:29.083Z,3.15
2022-08-27T17:58:56.652Z,3.45
2022-08-27T18:01:30.346Z,2.78
2022-08-27T18:03:58.676Z,3.00
2022-08-27T18:06:26.879Z,3.47
2022-08-27T18:08:53.858Z,3.20
2022-08-27T18:11:20.475Z,3.17
2022-08-27T18:13:52.365Z,2.75
2022-08-27T18:16:19.614Z,3.90
2022-08-27T18:18:46.443Z,3.75
2022-08-27T18:21:13.084Z,3.30
2022-08-27T18:23:51.911Z,3.67
2022-08-27T18:26:21.414Z,3.75
2022-08-27T18:28:48.457Z,3.35
2022-08-27T18:31:17.069Z,4.30
2022-08-27T18:33:43.593Z,3.80
2022-08-27T18:36:10.474Z,3.03
2022-08-27T18:38:37.078Z,3.35
2022-08-27T18:41:03.696Z,3.25
2022-08-27T18:43:34.576Z,3.10
2022-08-27T18:46:03.301Z,3.92
2022-08-27T18:48:30.073Z,3.70
2022-08-27T18:50:59.148Z,3.47
2022-08-27T18:53:28.168Z,3.33
2022-08-27T18:55:54.737Z,2.90
2022-08-27T18:58:22.264Z,3.33
2022-08-27T19:00:53.286Z,3.22
2022-08-27T19:03:24.750Z,3.00
2022-08-27T19:05:55.032Z,2.95
2022-08-27T19:08:23.602Z,3.67
2022-08-27T19:10:50.749Z,3.25
2022-08-27T19:13:17.302Z,3.63
2022-08-27T19:15:49.728Z,2.63
2022-08-27T19:18:17.637Z,2.72
2022-08-27T19:20:44.443Z,2.83
2022-08-27T19:23:11.020Z,2.90
2022-08-27T19:25:37.678Z,2.90
2022-08-27T19:28:04.122Z,3.40
2022-08-27T19:30:31.676Z,3.70
2022-08-27T19:32:58.230Z,3.72
2022-08-27T19:35:25.194Z,3.08
2022-08-27T19:37:53.498Z,3.03
2022-08-27T19:40:22.284Z,2.92
2022-08-27T19:42:49.211Z,3.13
2022-08-27T19:45:15.731Z,3.95
2022-08-27T19:47:50.266Z,3.13
2022-08-27T19:50:17.715Z,3.72
2022-08-27T19:52:44.401Z,3.20
2022-08-27T19:55:13.879Z,3.10
2022-08-27T19:57:41.715Z,3.20
2022-08-27T20:00:09.926Z,3.63
2022-08-27T20:02:36.914Z,3.20
2022-08-27T20:05:19.964Z,3.28
2022-08-27T20:07:49.082Z,3.35
2022-08-27T20:10:16.568Z,2.72
2022-08-27T20:12:43.472Z,3.90
2022-08-27T20:15:10.531Z,2.95
2022-08-27T20:17:36.927Z,3.53
2022-08-27T20:20:06.261Z,2.95
2022-08-27T20:22:32.758Z,3.22
2022-08-27T20:24:59.259Z,3.65
2022-08-27T20:27:25.652Z,2.90
2022-08-27T20:29:52.508Z,3.17
2022-08-27T20:32:20.252Z,2.65
2022-08-27T20:34:46.695Z,3.28
2022-08-27T20:37:13.235Z,3.22
2022-08-27T20:39:40.167Z,3.92
2022-08-27T20:42:06.641Z,3.67
2022-08-27T20:44:33.093Z,3.60
2022-08-27T20:47:01.503Z,2.90
2022-08-27T20:49:28.800Z,3.45
2022-08-27T20:52:03.292Z,3.90
2022-08-27T20:54:31.520Z,3.30
2022-08-27T20:56:58.125Z,3.88
2022-08-27T20:59:43.352Z,3.17
2022-08-27T21:02:12.268Z,3.70
2022-08-27T21:04:41.842Z,3.67
2022-08-27T21:07:08.233Z,4.20
2022-08-27T21:09:35.487Z,4.18
2022-08-27T21:12:22.605Z,3.70
2022-08-27T21:14:50.042Z,3.90
2022-08-27T21:17:21.893Z,4.03
2022-08-27T21:19:48.291Z,3.97
2022-08-27T21:22:14.782Z,4.00
2022-08-27T21:24:41.188Z,3.80
2022-08-27T21:27:07.631Z,3.60
2022-08-27T21:29:34.136Z,3.78
2022-08-27T21:32:00.662Z,3.83
2022-08-27T21:34:28.121Z,3.80
2022-08-27T21:36:54.679Z,3.83
2022-08-27T21:39:21.240Z,4.65
2022-08-27T21:41:48.003Z,3.63
2022-08-27T21:44:14.712Z,4.07
2022-08-27T21:46:41.568Z,3.67
2022-08-27T21:49:08.320Z,4.20
2022-08-27T21:51:35.824Z,4.25
2022-08-27T21:54:02.257Z,4.22
2022-08-27T21:56:31.891Z,4.97
2022-08-27T21:58:58.355Z,4.85
2022-08-27T22:01:24.878Z,4.13
2022-08-27T22:03:51.578Z,4.13
2022-08-27T22:06:19.353Z,4.20
2022-08-27T22:08:45.838Z,4.50
2022-08-27T22:11:13.304Z,5.75
2022-08-27T22:13:40.661Z,4.38
2022-08-27T22:16:07.670Z,5.10
2022-08-27T22:18:34.254Z,4.40
2022-08-27T22:21:01.161Z,5.25
2022-08-27T22:23:27.714Z,4.30
2022-08-27T22:25:54.294Z,4.78
2022-08-27T22:28:21.289Z,5.65
2022-08-27T22:30:47.744Z,5.15
2022-08-27T22:33:14.895Z,5.00
2022-08-27T22:35:41.574Z,4.40
2022-08-27T22:38:08.203Z,4.88
2022-08-27T22:40:36.456Z,4.72
2022-08-27T22:43:04.014Z,3.83
2022-08-27T22:45:30.815Z,4.57
2022-08-27T22:47:57.904Z,4.53
2022-08-27T22:50:24.491Z,3.97
2022-08-27T22:52:51.162Z,3.97
2022-08-27T22:55:21.737Z,4.13
2022-08-27T22:57:50.088Z,4.38
2022-08-27T23:00:20.327Z,4.18
2022-08-27T23:02:46.838Z,3.90
2022-08-27T23:05:14.731Z,3.95
2022-08-27T23:07:42.131Z,3.60
2022-08-27T23:10:11.389Z,3.47
2022-08-27T23:12:39.175Z,3.80
2022-08-27T23:15:08.327Z,4.22
2022-08-27T23:17:34.706Z,4.18
2022-08-27T23:20:01.262Z,4.53
2022-08-27T23:22:27.722Z,4.00
2022-08-27T23:25:12.900Z,3.63
2022-08-27T23:27:39.383Z,3.72
2022-08-27T23:30:07.888Z,3.28
2022-08-27T23:32:34.878Z,3.90
2022-08-27T23:35:01.488Z,3.47
2022-08-27T23:37:28.064Z,3.65
2022-08-27T23:39:54.836Z,3.45
2022-08-27T23:42:21.428Z,4.10
2022-08-27T23:44:48.888Z,4.20
2022-08-27T23:47:15.931Z,2.80
2022-08-27T23:49:43.283Z,3.58
2022-08-27T23:52:11.630Z,3.55
2022-08-27T23:54:38.104Z,3.47
2022-08-27T23:57:04.567Z,3.90
2022-08-27T23:59:31.137Z,3.70
